Time;durP1;ratioP1;P1;durP2;ratioP2;P2;SDS_P1;SDS_P2;PMS_P1;PMS_P2;Temp;Humidity;BMP_temperature;BMP_pressure;BME280_temperature;BME280_humidity;BME280_pressure;Samples;Min_cycle;Max_cycle;Signal;HPM_P1;HPM_P2
2022/12/03 00:01:35;;;;;;;90.10;14.95;;;-0.60;99.90;;;;;;4677776;30;20058;-86
2022/12/03 00:04:04;;;;;;;236.05;27.88;;;-0.60;99.90;;;;;;4670448;30;20057;-87
2022/12/03 00:06:32;;;;;;;8.77;5.43;;;-0.60;99.90;;;;;;4683654;30;20070;-86
2022/12/03 00:09:01;;;;;;;76.10;12.27;;;-0.60;99.90;;;;;;4661163;30;20049;-86
2022/12/03 00:11:29;;;;;;;10.20;6.97;;;-0.60;99.90;;;;;;4644085;30;20057;-86
2022/12/03 00:13:58;;;;;;;30.40;13.30;;;-0.60;99.90;;;;;;4670213;30;20072;-86
2022/12/03 00:16:26;;;;;;;12.30;9.70;;;-0.60;99.90;;;;;;4658100;30;20062;-86
2022/12/03 00:18:54;;;;;;;52.20;11.10;;;-0.60;99.90;;;;;;4646313;30;20069;-86
2022/12/03 00:21:22;;;;;;;19.60;8.52;;;-0.60;99.90;;;;;;4676584;30;20062;-86
2022/12/03 00:23:51;;;;;;;39.63;12.90;;;-0.60;99.90;;;;;;4659137;30;20061;-86
2022/12/03 00:26:18;;;;;;;94.88;17.83;;;-0.60;99.90;;;;;;4644570;30;20054;-86
2022/12/03 00:28:48;;;;;;;75.07;11.65;;;-0.60;99.90;;;;;;4652967;30;20046;-86
2022/12/03 00:31:16;;;;;;;83.90;14.52;;;-0.60;99.90;;;;;;4652056;30;20055;-86
2022/12/03 00:33:44;;;;;;;67.28;11.88;;;-0.60;99.90;;;;;;4668647;30;20057;-86
2022/12/03 00:36:12;;;;;;;133.02;17.38;;;-0.60;99.90;;;;;;4666263;30;20683;-86
2022/12/03 00:38:40;;;;;;;75.15;13.98;;;-0.60;99.90;;;;;;4653111;30;20399;-86
2022/12/03 00:41:08;;;;;;;82.13;17.83;;;-0.60;99.90;;;;;;4636985;30;20049;-86
2022/12/03 00:43:36;;;;;;;54.33;12.32;;;-0.70;99.90;;;;;;4648861;30;20064;-86
2022/12/03 00:46:04;;;;;;;73.45;12.98;;;-0.70;99.90;;;;;;4675842;30;20058;-87
2022/12/03 00:48:34;;;;;;;38.38;12.02;;;-0.60;99.90;;;;;;4659556;30;20081;-86
2022/12/03 00:51:02;;;;;;;24.63;12.32;;;-0.60;99.90;;;;;;4650483;30;20085;-86
2022/12/03 00:53:30;;;;;;;55.42;15.32;;;-0.60;99.90;;;;;;4629114;30;20065;-86
2022/12/03 00:56:00;;;;;;;20.02;10.15;;;-0.50;99.90;;;;;;4631939;30;20058;-86
2022/12/03 00:58:28;;;;;;;31.30;9.85;;;-0.50;99.90;;;;;;4661870;30;20073;-86
2022/12/03 01:00:56;;;;;;;7.03;6.43;;;-0.70;99.90;;;;;;4618708;30;20053;-86
2022/12/03 01:03:23;;;;;;;37.38;11.50;;;-0.80;99.90;;;;;;4646295;30;20058;-86
2022/12/03 01:05:54;;;;;;;18.77;9.23;;;-0.80;99.90;;;;;;4645539;30;20062;-86
2022/12/03 01:08:22;;;;;;;23.67;7.63;;;-0.80;99.90;;;;;;4631447;30;20064;-86
2022/12/03 01:10:49;;;;;;;38.95;14.73;;;-0.80;99.90;;;;;;4676746;30;20315;-85
2022/12/03 01:13:17;;;;;;;26.35;12.20;;;-0.80;99.90;;;;;;4654898;30;20218;-85
2022/12/03 01:15:44;;;;;;;30.08;12.25;;;-0.70;99.90;;;;;;4631883;30;20058;-86
2022/12/03 01:18:12;;;;;;;38.35;10.15;;;-0.70;99.90;;;;;;4645817;30;20058;-85
2022/12/03 01:20:42;;;;;;;26.75;10.10;;;-0.60;99.90;;;;;;4672866;30;20058;-86
2022/12/03 01:23:12;;;;;;;64.05;12.07;;;-0.60;99.90;;;;;;4677199;30;20065;-86
2022/12/03 01:25:40;;;;;;;39.22;10.88;;;-0.60;99.90;;;;;;4663928;30;20049;-87
2022/12/03 01:28:08;;;;;;;22.33;10.98;;;-0.60;99.90;;;;;;4634182;30;20050;-85
2022/12/03 01:32:15;;;;;;;19.10;8.02;;;-0.60;99.90;;;;;;4678903;30;20062;-85
2022/12/03 01:33:23;;;;;;;30.00;8.30;;;-0.70;99.90;;;;;;4662994;30;20080;-86
2022/12/03 01:35:50;;;;;;;24.20;12.00;;;-0.70;99.90;;;;;;4677250;30;20058;-84
2022/12/03 01:38:20;;;;;;;29.55;9.70;;;-0.70;99.90;;;;;;4671124;30;20063;-86
2022/12/03 01:40:48;;;;;;;50.05;9.27;;;-0.70;99.90;;;;;;4646154;30;20061;-86
2022/12/03 01:43:20;;;;;;;23.45;10.65;;;-0.80;99.90;;;;;;4632142;30;20081;-86
2022/12/03 01:45:47;;;;;;;85.85;10.60;;;-0.80;99.90;;;;;;4646353;30;20066;-85
2022/12/03 01:48:16;;;;;;;24.73;7.22;;;-0.80;99.90;;;;;;4637099;30;20061;-89
2022/12/03 01:50:44;;;;;;;18.30;5.40;;;-0.80;99.90;;;;;;4677230;30;20062;-89
2022/12/03 01:53:17;;;;;;;30.48;11.63;;;-0.90;99.90;;;;;;4648317;30;20073;-87
2022/12/03 01:55:45;;;;;;;17.25;10.23;;;-0.80;99.90;;;;;;4634484;30;20045;-88
2022/12/03 01:58:24;;;;;;;20.05;8.60;;;-0.80;99.90;;;;;;4663136;30;20050;-87
2022/12/03 02:00:52;;;;;;;29.98;8.25;;;-0.80;99.90;;;;;;4663716;30;20897;-93
2022/12/03 02:03:24;;;;;;;26.65;8.80;;;-0.70;99.90;;;;;;4663889;30;20435;-92
2022/12/03 02:05:52;;;;;;;18.50;8.02;;;-0.70;99.90;;;;;;4654808;30;20069;-89
2022/12/03 02:08:35;;;;;;;33.00;10.15;;;-0.80;99.90;;;;;;4694207;30;20143;-89
2022/12/03 02:11:24;;;;;;;55.30;13.93;;;-0.70;99.90;;;;;;4653669;30;20061;-93
2022/12/03 02:13:58;;;;;;;27.08;8.68;;;-0.70;99.90;;;;;;4693686;30;20072;-93
2022/12/03 02:16:25;;;;;;;80.57;10.57;;;-0.70;99.90;;;;;;4681278;30;20434;-90
2022/12/03 02:18:53;;;;;;;63.78;9.93;;;-0.70;99.90;;;;;;4681655;30;20283;-92
2022/12/03 02:21:36;;;;;;;23.30;8.93;;;-0.70;99.90;;;;;;4681682;30;20065;-83
2022/12/03 02:24:33;;;;;;;66.72;13.70;;;-0.70;99.90;;;;;;4680113;30;20049;-89
2022/12/03 02:27:01;;;;;;;20.42;9.13;;;-0.60;99.90;;;;;;4681094;30;20057;-89
2022/12/03 02:29:29;;;;;;;16.23;10.27;;;-0.60;99.90;;;;;;4666460;30;20090;-91
2022/12/03 02:31:57;;;;;;;18.42;7.93;;;-0.60;99.90;;;;;;4681148;30;20057;-91
2022/12/03 02:34:39;;;;;;;15.85;8.18;;;-0.70;99.90;;;;;;4666306;30;20064;-91
2022/12/03 02:37:12;;;;;;;23.95;6.35;;;-0.70;99.90;;;;;;4660630;30;20050;-90
2022/12/03 02:39:43;;;;;;;25.17;10.02;;;-0.70;99.90;;;;;;4663134;30;20054;-91
2022/12/03 02:45:00;;;;;;;33.33;12.77;;;-0.80;99.90;;;;;;4643686;30;20051;-90
2022/12/03 02:47:35;;;;;;;16.20;6.95;;;-0.80;99.90;;;;;;4631778;30;20074;-91
2022/12/03 02:50:04;;;;;;;26.48;5.68;;;-0.80;99.90;;;;;;4616470;30;20062;-90
2022/12/03 02:52:51;;;;;;;36.40;9.02;;;-0.80;99.90;;;;;;4602307;30;20063;-90
2022/12/03 02:55:19;;;;;;;;;;;-0.90;99.90;;;;;;4627550;30;20269;-89
2022/12/03 02:57:50;;;;;;;18.15;8.05;;;-0.90;99.90;;;;;;4627628;30;19928;-90
2022/12/03 03:00:19;;;;;;;17.67;8.35;;;-0.90;99.90;;;;;;4600537;30;20057;-90
2022/12/03 03:02:46;;;;;;;16.52;8.32;;;-0.90;99.90;;;;;;4641182;30;20265;-91
2022/12/03 03:05:15;;;;;;;27.45;9.32;;;-0.80;99.90;;;;;;4612186;30;20146;-91
2022/12/03 03:07:43;;;;;;;21.92;9.50;;;-0.80;99.90;;;;;;4599556;30;20063;-90
2022/12/03 03:10:14;;;;;;;24.63;11.32;;;-0.70;99.90;;;;;;4650591;30;20057;-90
2022/12/03 03:12:42;;;;;;;;;;;-0.70;99.90;;;;;;4676505;30;20058;-88
2022/12/03 03:15:11;;;;;;;12.45;6.68;;;-0.70;99.90;;;;;;4678310;30;20010;-91
2022/12/03 03:17:39;;;;;;;44.15;9.40;;;-0.70;99.90;;;;;;4661788;30;20042;-89
2022/12/03 03:20:09;;;;;;;69.35;11.80;;;-0.70;99.90;;;;;;4676847;30;20046;-90
2022/12/03 03:22:40;;;;;;;13.48;8.25;;;-0.80;99.90;;;;;;4662881;30;20065;-90
2022/12/03 03:25:11;;;;;;;35.60;9.55;;;-0.70;99.90;;;;;;4662537;30;20070;-90
2022/12/03 03:27:40;;;;;;;18.85;7.72;;;-0.70;99.90;;;;;;4661853;30;20423;-90
2022/12/03 03:30:10;;;;;;;23.73;8.10;;;-0.70;99.90;;;;;;4677349;30;20069;-90
2022/12/03 03:32:38;;;;;;;9.57;5.53;;;-0.70;99.90;;;;;;4634044;30;20456;-89
2022/12/03 03:35:09;;;;;;;18.47;10.20;;;-0.70;99.90;;;;;;4648741;30;20065;-90
2022/12/03 03:37:38;;;;;;;19.73;7.47;;;-0.70;99.90;;;;;;4662048;30;20296;-89
2022/12/03 03:40:06;;;;;;;20.45;8.80;;;-0.70;99.90;;;;;;4679684;30;20053;-89
2022/12/03 03:42:39;;;;;;;36.13;9.95;;;-0.70;99.90;;;;;;4680207;30;20054;-91
2022/12/03 03:45:08;;;;;;;17.25;10.43;;;-0.70;99.90;;;;;;4679262;30;20060;-90
2022/12/03 03:47:36;;;;;;;39.80;10.68;;;-0.70;99.90;;;;;;4693334;30;20053;-89
2022/12/03 03:50:05;;;;;;;17.58;10.73;;;-0.70;99.90;;;;;;4664923;30;20057;-90
2022/12/03 03:52:34;;;;;;;41.08;10.73;;;-0.70;99.90;;;;;;4679230;30;20053;-90
2022/12/03 03:55:06;;;;;;;19.30;10.30;;;-0.70;99.90;;;;;;4669217;30;20058;-90
2022/12/03 03:57:33;;;;;;;23.15;9.43;;;-0.60;99.90;;;;;;4681945;30;20066;-90
2022/12/03 04:00:04;;;;;;;29.05;11.30;;;-0.60;99.90;;;;;;4660035;30;20049;-90
2022/12/03 04:02:35;;;;;;;47.13;12.65;;;-0.60;99.90;;;;;;4662961;30;20272;-92
2022/12/03 04:05:03;;;;;;;9.13;8.20;;;-0.60;99.90;;;;;;4661217;30;20053;-89
2022/12/03 04:07:31;;;;;;;24.38;8.75;;;-0.60;99.90;;;;;;4647322;30;20054;-90
2022/12/03 04:09:58;;;;;;;13.57;8.15;;;-0.60;99.90;;;;;;4661718;30;20062;-90
2022/12/03 04:15:12;;;;;;;40.15;7.82;;;-0.70;99.90;;;;;;4660771;30;20065;-90
2022/12/03 04:17:40;;;;;;;19.13;8.82;;;-0.70;99.90;;;;;;4662853;30;20061;-89
2022/12/03 04:20:08;;;;;;;16.05;8.57;;;-0.70;99.90;;;;;;4682444;30;20046;-90
2022/12/03 04:22:39;;;;;;;19.83;9.82;;;-0.70;99.90;;;;;;4679456;30;20471;-89
2022/12/03 04:30:41;;;;;;;13.20;6.20;;;-0.50;99.90;;;;;;4680731;30;20069;-91
2022/12/03 04:35:55;;;;;;;23.40;11.43;;;-0.50;99.90;;;;;;4685659;30;20050;-90
2022/12/03 04:38:24;;;;;;;12.27;9.07;;;-0.50;99.90;;;;;;4687450;30;20061;-91
2022/12/03 04:41:02;;;;;;;16.40;8.45;;;-0.50;99.90;;;;;;4681272;30;20053;-91
2022/12/03 04:43:33;;;;;;;20.50;10.63;;;-0.50;99.90;;;;;;4683179;30;21341;-90
2022/12/03 04:46:01;;;;;;;17.38;9.55;;;-0.50;99.90;;;;;;4667927;30;20092;-90
2022/12/03 04:48:29;;;;;;;23.23;12.38;;;-0.50;99.90;;;;;;4681608;30;20054;-90
2022/12/03 04:50:56;;;;;;;22.20;11.23;;;-0.50;99.90;;;;;;4682162;30;20057;-90
2022/12/03 04:53:24;;;;;;;27.02;10.98;;;-0.40;99.90;;;;;;4681460;30;20045;-90
2022/12/03 04:55:54;;;;;;;18.92;11.02;;;-0.50;99.90;;;;;;4653762;30;20056;-90
2022/12/03 04:58:22;;;;;;;20.73;11.35;;;-0.50;99.90;;;;;;4667652;30;20061;-89
2022/12/03 05:00:50;;;;;;;14.93;9.80;;;-0.40;99.90;;;;;;4657981;30;20046;-90
2022/12/03 05:03:18;;;;;;;26.95;12.40;;;-0.50;99.90;;;;;;4664496;30;20291;-90
2022/12/03 05:05:46;;;;;;;7.95;5.85;;;-0.50;99.90;;;;;;4674816;30;20050;-90
2022/12/03 05:08:14;;;;;;;10.55;7.35;;;-0.40;99.90;;;;;;4661911;30;20046;-90
2022/12/03 05:10:42;;;;;;;19.88;10.23;;;-0.50;99.90;;;;;;4662883;30;20065;-90
2022/12/03 05:13:10;;;;;;;22.08;12.40;;;-0.50;99.90;;;;;;4654183;30;20049;-89
2022/12/03 05:15:37;;;;;;;27.98;13.00;;;-0.60;99.90;;;;;;4663782;30;20046;-89
2022/12/03 05:18:05;;;;;;;20.70;12.25;;;-0.60;99.90;;;;;;4663718;30;20070;-90
2022/12/03 05:20:41;;;;;;;7.15;5.95;;;-0.60;99.90;;;;;;4659830;30;20050;-89
2022/12/03 05:23:17;;;;;;;22.17;10.00;;;-0.60;99.90;;;;;;4647821;30;20369;-90
2022/12/03 05:25:47;;;;;;;21.77;14.93;;;-0.60;99.90;;;;;;4647610;30;20058;-90
2022/12/03 05:28:17;;;;;;;27.50;13.68;;;-0.60;99.90;;;;;;4647078;30;20163;-90
2022/12/03 05:30:45;;;;;;;25.98;15.18;;;-0.60;99.90;;;;;;4661937;30;20070;-90
2022/12/03 05:33:12;;;;;;;20.73;8.82;;;-0.60;99.90;;;;;;4632148;30;20058;-89
2022/12/03 05:35:40;;;;;;;10.60;6.95;;;-0.60;99.90;;;;;;4646745;30;20687;-89
2022/12/03 05:38:07;;;;;;;22.15;12.07;;;-0.60;99.90;;;;;;4633626;30;20062;-90
2022/12/03 05:40:36;;;;;;;16.98;11.48;;;-0.50;99.90;;;;;;4661606;30;20061;-89
2022/12/03 05:43:07;;;;;;;31.10;12.55;;;-0.50;99.90;;;;;;4661812;30;20050;-90
2022/12/03 05:45:38;;;;;;;21.37;12.90;;;-0.50;99.90;;;;;;4646281;30;20050;-89
2022/12/03 05:48:09;;;;;;;30.30;13.25;;;-0.50;99.90;;;;;;4646240;30;20304;-91
2022/12/03 05:50:38;;;;;;;58.13;13.95;;;-0.40;99.90;;;;;;4645976;30;20069;-90
2022/12/03 05:53:16;;;;;;;16.65;11.35;;;-0.50;99.90;;;;;;4661215;30;20062;-89
2022/12/03 05:55:43;;;;;;;20.45;10.25;;;-0.50;99.90;;;;;;4646916;30;20050;-90
2022/12/03 05:58:11;;;;;;;15.35;9.55;;;-0.50;99.90;;;;;;4661006;30;20423;-89
2022/12/03 06:00:39;;;;;;;27.02;12.55;;;-0.50;99.90;;;;;;4647003;30;20420;-90
2022/12/03 06:03:09;;;;;;;23.05;12.07;;;-0.50;99.90;;;;;;4646854;30;20061;-90
2022/12/03 06:05:37;;;;;;;22.77;11.55;;;-0.60;99.90;;;;;;4649154;30;20065;-89
2022/12/03 06:08:05;;;;;;;71.53;13.88;;;-0.50;99.90;;;;;;4662953;30;20061;-89
2022/12/03 06:10:33;;;;;;;19.42;8.75;;;-0.60;99.90;;;;;;4662693;30;20058;-90
2022/12/03 06:13:02;;;;;;;17.00;12.10;;;-0.60;99.90;;;;;;4663827;30;20061;-90
2022/12/03 06:15:32;;;;;;;;;;;-0.60;99.90;;;;;;4622675;30;20061;-90
2022/12/03 06:18:06;;;;;;;27.23;12.00;;;-0.60;99.90;;;;;;4677529;30;19935;-89
2022/12/03 06:20:34;;;;;;;20.45;9.90;;;-0.60;99.90;;;;;;4670713;30;20043;-90
2022/12/03 06:23:02;;;;;;;13.68;7.60;;;-0.50;99.90;;;;;;4662580;30;20058;-90
2022/12/03 06:25:30;;;;;;;19.95;10.40;;;-0.60;99.90;;;;;;4635211;30;20058;-90
2022/12/03 06:27:57;;;;;;;18.83;10.82;;;-0.60;99.90;;;;;;4663261;30;20054;-89
2022/12/03 06:30:25;;;;;;;18.17;9.30;;;-0.60;99.90;;;;;;4663443;30;20058;-89
2022/12/03 06:32:53;;;;;;;22.00;13.25;;;-0.60;99.90;;;;;;4663009;30;20065;-89
2022/12/03 06:35:21;;;;;;;21.73;10.45;;;-0.60;99.90;;;;;;4662324;30;20069;-89
2022/12/03 06:37:48;;;;;;;29.52;11.75;;;-0.60;99.90;;;;;;4681350;30;20049;-89
2022/12/03 06:40:16;;;;;;;12.02;7.50;;;-0.60;99.90;;;;;;4665775;30;20053;-89
2022/12/03 06:42:51;;;;;;;27.48;13.90;;;-0.60;99.90;;;;;;4694419;30;20447;-90
2022/12/03 06:45:18;;;;;;;21.65;11.50;;;-0.60;99.90;;;;;;4694896;30;20057;-90
2022/12/03 06:47:46;;;;;;;28.13;11.45;;;-0.60;99.90;;;;;;4679255;30;20076;-90
2022/12/03 06:50:13;;;;;;;24.92;13.88;;;-0.60;99.90;;;;;;4693926;30;20072;-90
2022/12/03 06:52:41;;;;;;;21.58;9.95;;;-0.50;99.90;;;;;;4692995;30;20061;-90
2022/12/03 06:55:09;;;;;;;33.45;14.05;;;-0.50;99.90;;;;;;4678713;30;20065;-89
2022/12/03 06:57:36;;;;;;;26.00;12.32;;;-0.50;99.90;;;;;;4694376;30;20447;-89
2022/12/03 07:00:05;;;;;;;30.75;14.25;;;-0.50;99.90;;;;;;4664374;30;20050;-89
2022/12/03 07:02:33;;;;;;;19.20;10.95;;;-0.50;99.90;;;;;;4662087;30;20054;-89
2022/12/03 07:05:00;;;;;;;16.08;10.65;;;-0.50;99.90;;;;;;4676797;30;20053;-90
2022/12/03 07:07:28;;;;;;;23.10;12.07;;;-0.50;99.90;;;;;;4658975;30;20420;-89
2022/12/03 07:09:55;;;;;;;26.45;12.32;;;-0.60;99.90;;;;;;4658605;30;20070;-90
2022/12/03 07:12:23;;;;;;;14.85;9.80;;;-0.60;99.90;;;;;;4630881;30;20050;-89
2022/12/03 07:14:51;;;;;;;29.13;12.90;;;-0.60;99.90;;;;;;4645679;30;20054;-90
2022/12/03 07:17:19;;;;;;;21.25;12.10;;;-0.60;99.90;;;;;;4659155;30;20047;-90
2022/12/03 07:19:46;;;;;;;24.65;9.68;;;-0.50;99.90;;;;;;4657767;30;20058;-89
2022/12/03 07:22:17;;;;;;;25.73;11.80;;;-0.60;99.90;;;;;;4659265;30;20272;-90
2022/12/03 07:24:44;;;;;;;24.03;11.93;;;-0.50;99.90;;;;;;4630972;30;20681;-89
2022/12/03 07:27:12;;;;;;;23.98;13.27;;;-0.50;99.90;;;;;;4672980;30;20062;-89
2022/12/03 07:29:39;;;;;;;33.60;11.10;;;-0.40;99.90;;;;;;4660203;30;20050;-89
2022/12/03 07:32:07;;;;;;;20.60;11.55;;;-0.40;99.90;;;;;;4671829;30;20055;-89
2022/12/03 07:34:34;;;;;;;28.13;12.13;;;-0.40;99.90;;;;;;4672542;30;20066;-89
2022/12/03 07:37:03;;;;;;;23.08;11.60;;;-0.40;99.90;;;;;;4658338;30;20046;-89
2022/12/03 07:39:31;;;;;;;34.03;13.30;;;-0.40;99.90;;;;;;4659398;30;20358;-89
2022/12/03 07:41:58;;;;;;;28.15;13.50;;;-0.40;99.90;;;;;;4662520;30;20070;-89
2022/12/03 07:44:27;;;;;;;29.00;13.82;;;-0.40;99.90;;;;;;4676847;30;20070;-88
2022/12/03 07:46:54;;;;;;;13.98;12.43;;;-0.40;99.90;;;;;;4676766;30;20396;-89
2022/12/03 07:49:22;;;;;;;32.05;16.25;;;-0.40;99.90;;;;;;4675318;30;20080;-88
2022/12/03 07:51:53;;;;;;;39.90;16.92;;;-0.40;99.90;;;;;;4662250;30;20057;-89
2022/12/03 07:54:21;;;;;;;21.25;10.38;;;-0.30;99.90;;;;;;4648280;30;20439;-90
2022/12/03 07:56:49;;;;;;;26.88;12.35;;;-0.30;99.90;;;;;;4661872;30;20106;-88
2022/12/03 07:59:17;;;;;;;19.20;11.90;;;-0.30;99.90;;;;;;4647898;30;20083;-88
2022/12/03 08:01:45;;;;;;;28.13;13.20;;;-0.30;99.90;;;;;;4675773;30;20570;-89
2022/12/03 08:04:13;;;;;;;28.80;13.73;;;-0.30;99.90;;;;;;4674621;30;20046;-89
2022/12/03 08:06:41;;;;;;;28.88;11.55;;;-0.20;99.90;;;;;;4680245;30;20077;-89
2022/12/03 08:09:08;;;;;;;28.00;13.55;;;-0.30;99.90;;;;;;4665081;30;20085;-89
2022/12/03 08:11:46;;;;;;;12.98;7.68;;;-0.30;99.90;;;;;;4666402;30;20773;-88
2022/12/03 08:14:18;;;;;;;34.20;16.55;;;-0.30;99.90;;;;;;4669273;30;20058;-89
2022/12/03 08:16:46;;;;;;;29.75;12.55;;;-0.30;99.90;;;;;;4652062;30;20061;-89
2022/12/03 08:19:17;;;;;;;28.80;13.05;;;-0.30;99.90;;;;;;4678417;30;20054;-89
2022/12/03 08:21:45;;;;;;;26.67;13.30;;;-0.30;99.90;;;;;;4669492;30;20045;-90
2022/12/03 08:24:16;;;;;;;22.77;11.52;;;-0.30;99.90;;;;;;4667241;30;20053;-89
2022/12/03 08:26:45;;;;;;;33.53;15.20;;;-0.30;99.90;;;;;;4665427;30;20066;-90
2022/12/03 08:29:17;;;;;;;31.13;16.40;;;-0.30;99.90;;;;;;4665441;30;20062;-89
2022/12/03 08:31:56;;;;;;;30.30;16.10;;;-0.20;99.90;;;;;;4679483;30;20669;-88
2022/12/03 08:34:27;;;;;;;22.80;11.45;;;-0.20;99.90;;;;;;4636157;30;20058;-89
2022/12/03 08:37:04;;;;;;;28.33;13.35;;;-0.20;99.90;;;;;;4662676;30;20066;-89
2022/12/03 08:39:36;;;;;;;11.27;9.10;;;-0.20;99.90;;;;;;4660879;30;20067;-90
2022/12/03 08:44:54;;;;;;;25.60;15.90;;;-0.20;99.90;;;;;;4647399;30;20483;-89
2022/12/03 08:47:23;;;;;;;27.65;13.32;;;-0.30;99.90;;;;;;4662587;30;20066;-91
2022/12/03 08:50:37;;;;;;;31.58;14.13;;;-0.30;99.90;;;;;;4647591;30;20062;-89
2022/12/03 08:53:35;;;;;;;25.77;14.57;;;-0.30;99.90;;;;;;4656875;30;20058;-89
2022/12/03 08:56:22;;;;;;;29.13;12.98;;;-0.30;99.90;;;;;;4659781;30;20420;-89
2022/12/03 08:58:56;;;;;;;27.20;13.55;;;-0.30;99.90;;;;;;4631529;30;20050;-88
2022/12/03 09:01:26;;;;;;;36.10;15.07;;;-0.30;99.90;;;;;;4654850;30;20053;-89
2022/12/03 09:04:04;;;;;;;25.20;14.00;;;-0.20;99.90;;;;;;4640111;30;20061;-89
2022/12/03 09:06:32;;;;;;;29.00;14.40;;;-0.20;99.90;;;;;;4648992;30;20431;-89
2022/12/03 09:08:59;;;;;;;22.67;16.40;;;-0.20;99.90;;;;;;4660805;30;20061;-89
2022/12/03 09:11:33;;;;;;;33.47;15.80;;;-0.20;99.90;;;;;;4664152;30;20061;-89
2022/12/03 09:14:04;;;;;;;24.50;13.00;;;-0.20;99.90;;;;;;4664370;30;20400;-89
2022/12/03 09:16:32;;;;;;;31.55;13.85;;;-0.20;99.90;;;;;;4657430;30;20058;-89
2022/12/03 09:19:00;;;;;;;24.17;14.32;;;-0.20;99.90;;;;;;4675697;30;20069;-89
2022/12/03 09:21:28;;;;;;;25.90;13.07;;;-0.10;99.90;;;;;;4663185;30;20054;-89
2022/12/03 09:23:56;;;;;;;10.02;9.15;;;-0.10;99.90;;;;;;4677657;30;20053;-90
2022/12/03 09:26:25;;;;;;;25.67;12.82;;;-0.10;99.90;;;;;;4677960;30;20058;-88
2022/12/03 09:28:53;;;;;;;23.35;11.80;;;-0.20;99.90;;;;;;4676909;30;20050;-89
2022/12/03 09:31:21;;;;;;;9.38;6.75;;;-0.10;99.90;;;;;;4662276;30;20058;-89
2022/12/03 09:33:49;;;;;;;26.83;11.85;;;-0.10;99.90;;;;;;4675342;30;20654;-89
2022/12/03 09:36:17;;;;;;;28.00;16.17;;;-0.10;99.90;;;;;;4656590;30;20050;-89
2022/12/03 09:38:44;;;;;;;17.25;11.93;;;-0.10;99.90;;;;;;4666221;30;20054;-89
2022/12/03 09:41:15;;;;;;;5.43;4.53;;;-0.10;99.90;;;;;;4662086;30;20054;-89
2022/12/03 09:43:44;;;;;;;23.33;12.77;;;-0.10;99.90;;;;;;4660001;30;20058;-90
2022/12/03 09:46:36;;;;;;;19.70;12.88;;;-0.10;99.90;;;;;;4646362;30;20372;-90
2022/12/03 09:49:09;;;;;;;23.40;12.00;;;0.00;99.90;;;;;;4657210;30;20065;-90
2022/12/03 09:51:44;;;;;;;24.83;11.15;;;0.00;99.90;;;;;;4648083;30;20054;-90
2022/12/03 09:54:22;;;;;;;25.42;12.43;;;0.00;99.90;;;;;;4678343;30;20062;-89
2022/12/03 09:56:50;;;;;;;10.80;5.93;;;0.00;99.90;;;;;;4663071;30;20050;-90
2022/12/03 09:59:17;;;;;;;11.75;10.25;;;0.00;99.90;;;;;;4677300;30;20549;-90
2022/12/03 10:01:45;;;;;;;11.88;10.50;;;0.10;99.90;;;;;;4649432;30;20054;-89
2022/12/03 10:04:13;;;;;;;26.95;13.07;;;0.00;99.90;;;;;;4661944;30;20555;-89
2022/12/03 10:06:41;;;;;;;39.05;12.90;;;0.00;99.90;;;;;;4671312;30;20058;-89
2022/12/03 10:09:16;;;;;;;24.05;13.93;;;0.10;99.90;;;;;;4690612;30;20073;-89
2022/12/03 10:11:44;;;;;;;25.85;13.18;;;0.10;99.90;;;;;;4677966;30;20061;-90
2022/12/03 10:14:15;;;;;;;32.55;14.40;;;0.10;99.90;;;;;;4661193;30;20065;-91
2022/12/03 10:16:43;;;;;;;34.20;13.30;;;0.20;99.90;;;;;;4648753;30;20050;-89
2022/12/03 10:19:38;;;;;;;22.27;13.80;;;0.20;99.90;;;;;;4674513;30;20068;-90
2022/12/03 10:22:06;;;;;;;20.77;12.30;;;0.20;99.90;;;;;;4659061;30;20058;-90
2022/12/03 10:24:35;;;;;;;13.00;8.60;;;0.20;99.90;;;;;;4659562;30;20047;-91
2022/12/03 10:27:18;;;;;;;20.80;8.75;;;0.10;99.90;;;;;;4659185;30;20424;-89
2022/12/03 10:29:55;;;;;;;26.80;13.57;;;0.10;99.90;;;;;;4658527;30;20047;-90
2022/12/03 10:32:42;;;;;;;25.30;12.68;;;0.10;99.90;;;;;;4645876;30;20054;-91
2022/12/03 10:35:19;;;;;;;28.48;14.25;;;0.10;99.90;;;;;;4659061;30;20058;-89
2022/12/03 10:38:05;;;;;;;24.95;12.35;;;0.10;99.90;;;;;;4633592;30;20063;-90
2022/12/03 10:40:35;;;;;;;14.55;7.70;;;0.10;99.90;;;;;;4627368;30;20058;-91
2022/12/03 10:43:18;;;;;;;11.25;8.20;;;0.10;99.90;;;;;;4622262;30;20068;-90
2022/12/03 10:46:01;;;;;;;25.75;13.98;;;0.10;99.90;;;;;;4616370;31;20063;-90
2022/12/03 10:48:31;;;;;;;26.42;12.93;;;0.10;99.90;;;;;;4607683;31;20059;-90
2022/12/03 10:51:17;;;;;;;24.90;12.85;;;0.10;99.90;;;;;;4608635;30;20074;-91
2022/12/03 10:53:44;;;;;;;24.92;13.05;;;0.10;99.90;;;;;;4595852;31;20059;-91
2022/12/03 10:56:24;;;;;;;17.95;10.10;;;0.10;99.90;;;;;;4623239;31;20066;-91
2022/12/03 10:58:53;;;;;;;19.25;11.10;;;0.10;99.90;;;;;;4624109;31;20396;-91
2022/12/03 11:01:23;;;;;;;25.80;14.02;;;0.10;99.90;;;;;;4609677;31;21088;-91
2022/12/03 11:03:55;;;;;;;20.02;13.85;;;0.10;99.90;;;;;;4621690;31;20059;-90
2022/12/03 11:06:23;;;;;;;19.85;11.85;;;0.10;99.90;;;;;;4609614;31;20074;-88
2022/12/03 11:08:53;;;;;;;21.98;10.68;;;0.10;99.90;;;;;;4603151;30;20052;-91
2022/12/03 11:11:30;;;;;;;9.10;8.25;;;0.10;99.90;;;;;;4611117;30;20058;-89
2022/12/03 11:14:01;;;;;;;18.20;10.85;;;0.10;99.90;;;;;;4620733;30;20100;-91
2022/12/03 11:16:40;;;;;;;26.25;13.35;;;0.20;99.90;;;;;;4623432;30;20061;-91
2022/12/03 11:19:38;;;;;;;21.00;12.57;;;0.20;99.90;;;;;;4663013;30;20065;-89
2022/12/03 11:22:08;;;;;;;22.88;13.77;;;0.30;99.90;;;;;;4646432;30;20058;-91
2022/12/03 11:24:38;;;;;;;15.15;7.43;;;0.30;99.90;;;;;;4645287;30;20058;-91
2022/12/03 11:27:14;;;;;;;22.20;13.00;;;0.30;99.90;;;;;;4670399;30;20069;-93
2022/12/03 11:29:45;;;;;;;16.08;9.77;;;0.30;99.90;;;;;;4661274;30;20062;-92
2022/12/03 11:32:53;;;;;;;21.48;12.82;;;0.20;99.90;;;;;;4660271;30;20051;-93
2022/12/03 11:35:23;;;;;;;24.52;14.60;;;0.20;99.90;;;;;;4636639;30;20066;-90
2022/12/03 11:37:52;;;;;;;16.42;9.73;;;0.20;99.90;;;;;;4660093;30;20058;-91
2022/12/03 11:40:22;;;;;;;25.02;13.00;;;0.30;99.90;;;;;;4644001;30;20046;-90
2022/12/03 11:42:50;;;;;;;15.18;13.05;;;0.30;99.90;;;;;;4659112;30;20062;-91
2022/12/03 11:45:29;;;;;;;18.90;9.88;;;0.20;99.90;;;;;;4645105;30;20069;-88
2022/12/03 11:47:57;;;;;;;19.73;11.52;;;0.20;99.90;;;;;;4659505;30;20070;-91
2022/12/03 11:50:30;;;;;;;8.13;6.43;;;0.20;99.90;;;;;;4657985;30;20062;-89
2022/12/03 11:53:09;;;;;;;16.90;10.40;;;0.20;99.90;;;;;;4658708;30;20081;-90
2022/12/03 11:55:45;;;;;;;17.58;9.88;;;0.20;99.90;;;;;;4659933;30;20394;-92
2022/12/03 11:58:26;;;;;;;20.50;11.07;;;0.20;99.90;;;;;;4634159;30;20058;-88
2022/12/03 12:00:59;;;;;;;22.17;11.27;;;0.20;99.90;;;;;;4659740;30;20059;-87
2022/12/03 12:03:33;;;;;;;19.17;10.95;;;0.30;99.90;;;;;;4657747;30;20059;-89
2022/12/03 12:06:02;;;;;;;17.58;9.00;;;0.20;99.90;;;;;;4659223;30;20070;-91
2022/12/03 12:08:34;;;;;;;23.13;12.95;;;0.20;99.90;;;;;;4642877;30;20063;-89
2022/12/03 12:11:02;;;;;;;17.73;14.38;;;0.20;99.90;;;;;;4659250;30;20076;-90
2022/12/03 12:13:30;;;;;;;14.65;9.15;;;0.20;99.90;;;;;;4630035;30;20066;-92
2022/12/03 12:16:03;;;;;;;11.93;8.35;;;0.10;99.90;;;;;;4644898;30;20057;-87
2022/12/03 12:18:47;;;;;;;12.50;8.60;;;0.10;99.90;;;;;;4643902;30;20058;-92
2022/12/03 12:21:41;;;;;;;13.35;8.45;;;0.10;99.90;;;;;;4644090;30;20061;-90
2022/12/03 12:24:39;;;;;;;19.65;11.73;;;0.10;99.90;;;;;;4643901;30;20061;-90
2022/12/03 12:27:10;;;;;;;22.50;11.85;;;0.10;99.90;;;;;;4666829;30;20061;-89
2022/12/03 12:29:40;;;;;;;20.95;11.52;;;0.10;99.90;;;;;;4651303;30;20059;-89
2022/12/03 12:32:09;;;;;;;18.75;11.82;;;0.10;99.90;;;;;;4641468;30;20042;-90
2022/12/03 12:34:45;;;;;;;22.05;10.85;;;0.10;99.90;;;;;;4660352;30;20061;-90
2022/12/03 12:37:42;;;;;;;23.38;12.13;;;0.10;99.90;;;;;;4675117;30;20062;-89
2022/12/03 12:40:16;;;;;;;21.60;12.10;;;0.10;99.90;;;;;;4643156;30;20046;-89
2022/12/03 12:42:51;;;;;;;12.20;8.70;;;0.10;99.90;;;;;;4647987;30;20432;-89
2022/12/03 12:45:22;;;;;;;16.02;10.38;;;0.20;99.90;;;;;;4642394;30;20054;-89
2022/12/03 12:48:08;;;;;;;23.37;13.73;;;0.10;99.90;;;;;;4644192;30;20055;-89
2022/12/03 12:50:37;;;;;;;23.00;12.70;;;0.00;99.90;;;;;;4658420;30;20062;-89
2022/12/03 12:53:26;;;;;;;18.02;11.07;;;0.10;99.90;;;;;;4660993;30;20043;-88
2022/12/03 12:56:23;;;;;;;17.65;9.25;;;0.00;99.90;;;;;;4632275;30;20050;-89
2022/12/03 12:58:52;;;;;;;24.63;14.23;;;0.00;99.90;;;;;;4633181;30;20066;-89
2022/12/03 13:01:30;;;;;;;15.38;10.95;;;-0.10;99.90;;;;;;4647090;30;20058;-88
2022/12/03 13:03:58;;;;;;;24.10;12.07;;;0.00;99.90;;;;;;4633603;30;20062;-88
2022/12/03 13:06:28;;;;;;;21.73;9.63;;;0.00;99.90;;;;;;4661372;30;20073;-88
2022/12/03 13:08:59;;;;;;;21.55;11.52;;;0.00;99.90;;;;;;4631811;30;20057;-88
2022/12/03 13:11:40;;;;;;;15.57;9.80;;;0.00;99.90;;;;;;4632601;30;20062;-89